createdAt,value
2023-01-18T00:01:32.358Z,0.80
2023-01-18T00:04:00.679Z,0.80
2023-01-18T00:06:29.048Z,0.80
2023-01-18T00:08:57.521Z,0.70
2023-01-18T00:11:28.606Z,0.80
2023-01-18T00:13:57.274Z,0.80
2023-01-18T00:16:26.875Z,0.80
2023-01-18T00:18:57.454Z,0.70
2023-01-18T00:21:27.867Z,0.80
2023-01-18T00:23:57.065Z,0.80
2023-01-18T00:26:25.242Z,0.80
2023-01-18T00:28:57.531Z,0.90
2023-01-18T00:31:26.701Z,0.90
2023-01-18T00:33:54.851Z,0.90
2023-01-18T00:36:23.857Z,1.00
2023-01-18T00:38:52.837Z,1.00
2023-01-18T00:41:22.198Z,0.90
2023-01-18T00:43:51.881Z,1.00
2023-01-18T00:46:23.637Z,1.00
2023-01-18T00:48:53.481Z,1.10
2023-01-18T00:51:24.222Z,1.10
2023-01-18T00:53:52.740Z,1.10
2023-01-18T00:56:22.777Z,1.00
2023-01-18T00:58:51.259Z,1.10
2023-01-18T01:01:18.968Z,1.10
2023-01-18T01:04:05.212Z,1.10
2023-01-18T01:06:47.246Z,1.00
2023-01-18T01:09:17.345Z,0.90
2023-01-18T01:12:05.340Z,0.80
2023-01-18T01:14:55.076Z,0.80
2023-01-18T01:17:41.585Z,0.80
2023-01-18T01:20:28.835Z,0.80
2023-01-18T01:23:15.027Z,0.70
2023-01-18T01:26:02.319Z,0.80
2023-01-18T01:28:31.332Z,0.90
2023-01-18T01:31:00.675Z,0.90
2023-01-18T01:33:30.480Z,0.90
2023-01-18T01:36:00.739Z,0.90
2023-01-18T01:38:29.645Z,0.90
2023-01-18T01:41:06.051Z,0.90
2023-01-18T01:43:57.890Z,0.90
2023-01-18T01:47:00.806Z,0.90
2023-01-18T01:49:33.848Z,0.90
2023-01-18T01:52:07.800Z,0.90
2023-01-18T01:54:50.210Z,0.90
2023-01-18T01:57:22.766Z,0.80
2023-01-18T01:59:58.650Z,0.90
2023-01-18T02:02:27.039Z,0.80
2023-01-18T02:04:55.569Z,0.80
2023-01-18T02:07:26.507Z,2.10
2023-01-18T02:09:55.222Z,0.80
2023-01-18T02:12:23.590Z,0.80
2023-01-18T02:14:52.571Z,0.90
2023-01-18T02:17:38.801Z,0.90
2023-01-18T02:20:43.346Z,0.90
2023-01-18T02:23:48.703Z,0.90
2023-01-18T02:26:43.857Z,1.00
2023-01-18T02:29:18.151Z,1.00
2023-01-18T02:32:15.000Z,1.10
2023-01-18T02:34:53.681Z,1.20
2023-01-18T02:37:42.925Z,1.30
2023-01-18T02:40:13.983Z,1.20
2023-01-18T02:43:02.655Z,1.20
2023-01-18T02:46:01.749Z,1.80
2023-01-18T02:48:37.489Z,1.20
2023-01-18T02:51:05.727Z,1.20
2023-01-18T02:53:38.136Z,1.10
2023-01-18T02:56:16.139Z,1.10
2023-01-18T02:58:52.131Z,1.10
2023-01-18T03:01:38.367Z,1.10
2023-01-18T03:04:29.120Z,1.10
2023-01-18T03:07:11.075Z,1.20
2023-01-18T03:09:41.652Z,1.20
2023-01-18T03:12:17.777Z,1.20
2023-01-18T03:15:02.570Z,1.20
2023-01-18T03:17:36.249Z,1.20
2023-01-18T03:20:09.438Z,1.20
2023-01-18T03:23:15.993Z,1.20
2023-01-18T03:25:47.151Z,1.20
2023-01-18T03:28:42.224Z,1.20
2023-01-18T03:31:32.031Z,1.20
2023-01-18T03:34:21.482Z,1.20
2023-01-18T03:36:53.291Z,1.20
2023-01-18T03:39:34.871Z,1.20
2023-01-18T03:42:47.139Z,1.20
2023-01-18T03:45:27.535Z,1.30
2023-01-18T03:47:55.420Z,1.20
2023-01-18T03:50:28.443Z,4.30
2023-01-18T03:53:00.610Z,1.30
2023-01-18T03:55:44.805Z,1.70
2023-01-18T03:58:15.290Z,1.30
2023-01-18T04:00:43.057Z,1.40
2023-01-18T04:03:10.910Z,1.40
2023-01-18T04:05:38.929Z,1.30
2023-01-18T04:08:06.978Z,1.50
2023-01-18T04:10:34.628Z,1.50
2023-01-18T04:13:02.305Z,1.70
2023-01-18T04:15:29.994Z,1.50
2023-01-18T04:17:57.749Z,2.40
2023-01-18T04:20:25.551Z,1.30
2023-01-18T04:22:55.672Z,1.60
2023-01-18T04:25:23.451Z,1.30
2023-01-18T04:27:51.413Z,2.20
2023-01-18T04:30:19.068Z,1.20
2023-01-18T04:32:46.746Z,1.20
2023-01-18T04:35:16.015Z,3.40
2023-01-18T04:37:43.604Z,1.20
2023-01-18T04:40:11.921Z,1.20
2023-01-18T04:42:39.652Z,1.20
2023-01-18T04:45:07.895Z,1.20
2023-01-18T04:47:35.524Z,1.20
2023-01-18T04:50:04.862Z,1.20
2023-01-18T04:55:00.970Z,1.20
2023-01-18T04:57:28.638Z,1.20
2023-01-18T04:59:56.431Z,1.20
2023-01-18T05:02:24.102Z,1.20
2023-01-18T05:04:51.792Z,1.20
2023-01-18T05:07:19.679Z,1.20
2023-01-18T05:09:47.370Z,1.20
2023-01-18T05:12:15.197Z,1.10
2023-01-18T05:14:43.200Z,1.10
2023-01-18T05:17:10.875Z,1.20
2023-01-18T05:19:39.229Z,1.20
2023-01-18T05:22:07.323Z,1.20
2023-01-18T05:24:34.989Z,1.20
2023-01-18T05:27:02.746Z,1.20
2023-01-18T05:29:30.573Z,2.30
2023-01-18T05:31:58.373Z,2.90
2023-01-18T05:34:27.253Z,1.30
2023-01-18T05:36:56.313Z,1.30
2023-01-18T05:41:51.775Z,1.30
2023-01-18T05:44:19.670Z,1.20
2023-01-18T05:46:47.515Z,1.20
2023-01-18T05:49:15.378Z,3.10
2023-01-18T05:51:43.390Z,1.20
2023-01-18T05:54:12.051Z,1.10
2023-01-18T05:56:39.529Z,1.20
2023-01-18T05:59:07.156Z,1.20
2023-01-18T06:01:35.189Z,1.20
2023-01-18T06:04:02.719Z,1.20
2023-01-18T06:06:30.795Z,1.20
2023-01-18T06:11:27.239Z,1.20
2023-01-18T06:13:54.761Z,1.20
2023-01-18T06:16:22.485Z,1.10
2023-01-18T06:18:50.267Z,1.10
2023-01-18T06:21:18.015Z,1.00
2023-01-18T06:23:45.804Z,2.50
2023-01-18T06:28:41.773Z,0.90
2023-01-18T06:31:10.573Z,3.60
2023-01-18T06:33:38.280Z,2.80
2023-01-18T06:36:06.506Z,2.70
2023-01-18T06:38:34.575Z,1.00
2023-01-18T06:41:02.139Z,1.00
2023-01-18T06:43:29.822Z,1.10
2023-01-18T06:45:58.522Z,1.10
2023-01-18T06:48:27.430Z,1.00
2023-01-18T06:50:58.637Z,1.10
2023-01-18T06:53:26.814Z,1.10
2023-01-18T06:55:59.607Z,1.10
2023-01-18T06:58:28.420Z,1.10
2023-01-18T07:00:57.785Z,2.40
2023-01-18T07:03:27.576Z,1.10
2023-01-18T07:05:55.961Z,2.30
2023-01-18T07:08:24.164Z,4.20
2023-01-18T07:10:52.916Z,1.10
2023-01-18T07:13:21.352Z,0.00
2023-01-18T07:16:00.874Z,2.80
2023-01-18T07:18:30.576Z,1.90
2023-01-18T07:21:02.442Z,1.20
2023-01-18T07:23:30.940Z,1.10
2023-01-18T07:26:07.145Z,1.20
2023-01-18T07:28:36.185Z,1.60
2023-01-18T07:31:05.072Z,1.20
2023-01-18T07:33:33.020Z,1.10
2023-01-18T07:36:01.602Z,2.10
2023-01-18T07:38:29.284Z,1.20
2023-01-18T07:41:05.639Z,1.20
2023-01-18T07:43:33.785Z,1.10
2023-01-18T07:46:04.045Z,1.00
2023-01-18T07:48:32.447Z,1.00
2023-01-18T07:51:02.489Z,0.10
2023-01-18T07:53:31.539Z,0.90
2023-01-18T07:56:00.993Z,0.90
2023-01-18T07:58:29.175Z,0.80
2023-01-18T08:01:03.016Z,0.80
2023-01-18T08:03:30.690Z,0.80
2023-01-18T08:05:59.878Z,0.80
2023-01-18T08:08:29.076Z,0.80
2023-01-18T08:10:58.484Z,0.90
2023-01-18T08:13:27.880Z,0.90
2023-01-18T08:15:58.966Z,0.90
2023-01-18T08:18:26.826Z,0.90
2023-01-18T08:20:55.884Z,0.90
2023-01-18T08:23:23.997Z,0.90
2023-01-18T08:25:51.998Z,0.90
2023-01-18T08:28:20.002Z,0.90
2023-01-18T08:30:48.535Z,1.60
2023-01-18T08:33:16.178Z,2.10
2023-01-18T08:35:48.210Z,1.00
2023-01-18T08:38:16.602Z,1.00
2023-01-18T08:40:44.279Z,2.10
2023-01-18T08:43:12.074Z,1.20
2023-01-18T08:45:39.709Z,0.60
2023-01-18T08:48:10.842Z,1.20
2023-01-18T08:50:42.995Z,1.20
2023-01-18T08:53:10.591Z,1.30
2023-01-18T08:55:38.993Z,1.20
2023-01-18T08:58:07.182Z,1.30
2023-01-18T09:00:34.957Z,1.30
2023-01-18T09:03:03.437Z,1.50
2023-01-18T09:05:33.890Z,1.50
2023-01-18T09:08:01.894Z,1.50
2023-01-18T09:10:29.739Z,1.50
2023-01-18T09:12:57.874Z,1.50
2023-01-18T09:15:27.099Z,1.70
2023-01-18T09:17:54.608Z,1.60
2023-01-18T09:20:22.439Z,2.70
2023-01-18T09:22:50.310Z,1.80
2023-01-18T09:25:18.518Z,1.90
2023-01-18T09:27:46.715Z,1.80
2023-01-18T09:30:16.262Z,1.80
2023-01-18T09:32:44.093Z,1.80
2023-01-18T09:35:11.863Z,3.80
2023-01-18T09:40:08.188Z,1.90
2023-01-18T09:42:40.443Z,1.90
2023-01-18T09:45:24.781Z,1.90
2023-01-18T09:48:00.139Z,1.90
2023-01-18T09:50:28.200Z,3.00
2023-01-18T09:53:14.067Z,1.80
2023-01-18T09:55:52.370Z,1.70
2023-01-18T09:58:25.977Z,1.90
2023-01-18T10:01:01.327Z,1.70
2023-01-18T10:03:42.060Z,1.70
2023-01-18T10:06:15.840Z,1.60
2023-01-18T10:09:09.919Z,1.60
2023-01-18T10:11:56.189Z,2.10
2023-01-18T10:14:49.162Z,1.60
2023-01-18T10:17:23.162Z,1.70
2023-01-18T10:19:51.397Z,1.70
2023-01-18T10:22:21.855Z,2.20
2023-01-18T10:24:59.923Z,0.20
2023-01-18T10:27:48.202Z,3.50
2023-01-18T10:30:43.482Z,1.80
2023-01-18T10:33:21.963Z,1.90
2023-01-18T10:35:54.350Z,1.90
2023-01-18T10:38:26.153Z,1.90
2023-01-18T10:40:59.857Z,1.90
2023-01-18T10:43:29.887Z,1.90
2023-01-18T10:45:58.173Z,1.90
2023-01-18T10:48:34.160Z,1.90
2023-01-18T10:51:05.916Z,2.10
2023-01-18T10:53:38.640Z,2.30
2023-01-18T10:56:26.029Z,2.30
2023-01-18T10:58:53.765Z,2.40
2023-01-18T11:01:24.483Z,2.40
2023-01-18T11:03:57.126Z,3.60
2023-01-18T11:06:25.581Z,2.50
2023-01-18T11:08:54.037Z,2.60
2023-01-18T11:11:51.454Z,2.60
2023-01-18T11:14:31.175Z,2.60
2023-01-18T11:17:11.556Z,2.70
2023-01-18T11:19:41.557Z,2.70
2023-01-18T11:22:32.970Z,2.60
2023-01-18T11:25:00.682Z,4.50
2023-01-18T11:27:28.673Z,2.70
2023-01-18T11:29:56.359Z,2.70
2023-01-18T11:32:30.523Z,3.90
2023-01-18T11:35:00.244Z,2.70
2023-01-18T11:37:40.037Z,2.70
2023-01-18T11:40:20.739Z,2.70
2023-01-18T11:42:55.215Z,2.70
2023-01-18T11:45:26.064Z,2.60
2023-01-18T11:48:10.405Z,5.60
2023-01-18T11:50:52.664Z,2.70
2023-01-18T11:53:30.976Z,2.80
2023-01-18T11:56:06.632Z,2.80
2023-01-18T11:58:36.046Z,3.00
2023-01-18T12:01:06.531Z,3.00
2023-01-18T12:03:51.034Z,3.00
2023-01-18T12:06:36.835Z,3.40
2023-01-18T12:09:10.272Z,3.40
2023-01-18T12:12:18.395Z,2.90
2023-01-18T12:15:05.547Z,3.60
2023-01-18T12:17:45.869Z,3.60
2023-01-18T12:20:27.412Z,3.70
2023-01-18T12:23:40.457Z,3.80
2023-01-18T12:26:30.702Z,3.80
2023-01-18T12:29:24.289Z,3.80
2023-01-18T12:32:33.604Z,3.90
2023-01-18T12:35:24.130Z,3.90
2023-01-18T12:38:13.485Z,3.90
2023-01-18T12:40:57.667Z,3.90
2023-01-18T12:43:46.822Z,3.90
2023-01-18T12:46:16.343Z,4.00
2023-01-18T12:48:47.093Z,3.90
2023-01-18T12:51:24.732Z,4.00
2023-01-18T12:53:58.869Z,4.00
2023-01-18T12:56:36.435Z,4.00
2023-01-18T12:59:14.463Z,4.00
2023-01-18T13:01:44.328Z,4.30
2023-01-18T13:04:22.876Z,4.10
2023-01-18T13:06:53.877Z,4.10
2023-01-18T13:09:26.947Z,4.20
2023-01-18T13:11:58.546Z,4.10
2023-01-18T13:15:05.975Z,4.20
2023-01-18T13:18:12.125Z,4.20
2023-01-18T13:20:53.591Z,4.20
2023-01-18T13:23:45.812Z,1.90
2023-01-18T13:26:32.230Z,4.30
2023-01-18T13:29:07.005Z,4.30
2023-01-18T13:31:35.029Z,4.40
2023-01-18T13:34:03.599Z,8.90
2023-01-18T13:36:46.030Z,4.30
2023-01-18T13:39:19.643Z,4.40
2023-01-18T13:42:09.981Z,4.50
2023-01-18T13:44:42.889Z,4.50
2023-01-18T13:47:35.820Z,4.40
2023-01-18T13:50:05.272Z,4.30
2023-01-18T13:52:42.332Z,4.30
2023-01-18T13:55:31.969Z,4.30
2023-01-18T13:57:59.889Z,4.30
2023-01-18T14:00:28.988Z,4.30
2023-01-18T14:03:07.843Z,4.30
2023-01-18T14:05:43.807Z,4.40
2023-01-18T14:08:21.345Z,4.30
2023-01-18T14:10:53.330Z,4.40
2023-01-18T14:13:49.876Z,4.40
2023-01-18T14:16:26.362Z,4.40
2023-01-18T14:19:17.273Z,4.30
2023-01-18T14:22:03.836Z,4.40
2023-01-18T14:25:02.211Z,4.40
2023-01-18T14:27:37.978Z,4.40
2023-01-18T14:30:11.543Z,4.40
2023-01-18T14:32:45.058Z,4.30
2023-01-18T14:35:25.655Z,4.40
2023-01-18T14:38:17.829Z,4.40
2023-01-18T14:40:55.931Z,4.50
2023-01-18T14:43:31.909Z,4.50
2023-01-18T14:46:04.835Z,4.50
2023-01-18T14:48:36.220Z,4.60
2023-01-18T14:51:05.350Z,4.60
2023-01-18T14:53:38.740Z,4.60
2023-01-18T14:56:17.285Z,4.60
2023-01-18T14:59:21.979Z,4.60
2023-01-18T15:01:58.342Z,4.50
2023-01-18T15:04:31.273Z,4.50
2023-01-18T15:07:10.127Z,4.50
2023-01-18T15:09:40.013Z,4.50
2023-01-18T15:12:15.602Z,4.50
2023-01-18T15:14:46.665Z,4.50
2023-01-18T15:17:25.291Z,4.40
2023-01-18T15:19:58.895Z,4.40
2023-01-18T15:22:33.219Z,4.30
2023-01-18T15:25:01.628Z,4.30
2023-01-18T15:27:32.439Z,4.30
2023-01-18T15:30:02.037Z,4.30
2023-01-18T15:32:33.289Z,4.40
2023-01-18T15:35:03.069Z,4.40
2023-01-18T15:37:37.894Z,4.50
2023-01-18T15:40:24.921Z,4.40
2023-01-18T15:43:08.227Z,4.50
2023-01-18T15:45:49.518Z,4.40
2023-01-18T15:48:22.800Z,4.60
2023-01-18T15:51:05.555Z,4.60
2023-01-18T15:53:39.049Z,4.60
2023-01-18T15:56:09.174Z,4.60
2023-01-18T15:58:40.534Z,4.60
2023-01-18T16:01:19.512Z,4.60
2023-01-18T16:03:50.505Z,4.60
2023-01-18T16:06:32.493Z,4.60
2023-01-18T16:09:13.927Z,4.60
2023-01-18T16:11:41.873Z,4.60
2023-01-18T16:14:28.555Z,4.60
2023-01-18T16:16:58.280Z,4.50
2023-01-18T16:19:34.910Z,4.50
2023-01-18T16:22:05.691Z,4.50
2023-01-18T16:24:58.532Z,4.50
2023-01-18T16:27:28.665Z,4.50
2023-01-18T16:30:17.565Z,4.40
2023-01-18T16:32:45.462Z,4.30
2023-01-18T16:35:31.461Z,4.30
2023-01-18T16:37:59.619Z,4.20
2023-01-18T16:40:28.851Z,4.30
2023-01-18T16:43:01.351Z,4.20
2023-01-18T16:45:32.768Z,4.30
2023-01-18T16:48:01.139Z,4.20
2023-01-18T16:50:29.303Z,4.10
2023-01-18T16:52:57.150Z,4.10
2023-01-18T16:57:54.309Z,3.70
2023-01-18T17:00:30.875Z,3.70
2023-01-18T17:02:59.053Z,3.50
2023-01-18T17:05:28.287Z,3.50
2023-01-18T17:07:56.054Z,3.40
2023-01-18T17:10:38.899Z,3.40
2023-01-18T17:13:06.693Z,3.30
2023-01-18T17:15:34.899Z,3.10
2023-01-18T17:18:03.741Z,3.00
2023-01-18T17:20:32.087Z,2.90
2023-01-18T17:23:01.317Z,2.90
2023-01-18T17:25:29.770Z,2.80
2023-01-18T17:27:58.149Z,2.70
2023-01-18T17:30:25.841Z,2.70
2023-01-18T17:32:53.882Z,2.70
2023-01-18T17:35:24.034Z,2.70
2023-01-18T17:38:00.678Z,2.70
2023-01-18T17:40:41.725Z,2.80
2023-01-18T17:43:15.179Z,2.90
2023-01-18T17:45:59.624Z,2.80
2023-01-18T17:48:29.962Z,2.80
2023-01-18T17:50:58.770Z,2.80
2023-01-18T17:53:26.764Z,2.80
2023-01-18T17:55:54.370Z,2.90
2023-01-18T17:58:22.298Z,3.00
2023-01-18T18:00:49.956Z,3.00
2023-01-18T18:03:17.588Z,3.20
2023-01-18T18:05:45.578Z,3.20
2023-01-18T18:08:13.893Z,3.30
2023-01-18T18:10:43.698Z,3.30
2023-01-18T18:13:11.386Z,3.30
2023-01-18T18:15:39.285Z,3.30
2023-01-18T18:18:12.343Z,3.10
2023-01-18T18:20:51.096Z,3.10
2023-01-18T18:23:19.091Z,2.80
2023-01-18T18:25:48.312Z,2.80
2023-01-18T18:28:15.960Z,2.80
2023-01-18T18:30:49.082Z,2.60
2023-01-18T18:33:18.608Z,2.60
2023-01-18T18:35:51.377Z,2.40
2023-01-18T18:38:22.653Z,2.40
2023-01-18T18:40:51.330Z,2.40
2023-01-18T18:43:19.259Z,2.30
2023-01-18T18:48:15.309Z,2.30
2023-01-18T18:50:42.893Z,2.30
2023-01-18T18:53:10.812Z,2.30
2023-01-18T18:55:38.349Z,2.40
2023-01-18T18:58:06.169Z,2.30
2023-01-18T19:00:34.437Z,2.30
2023-01-18T19:03:03.450Z,2.30
2023-01-18T19:05:32.727Z,2.20
2023-01-18T19:08:01.964Z,2.70
2023-01-18T19:10:30.631Z,2.10
2023-01-18T19:12:58.897Z,1.90
2023-01-18T19:15:27.065Z,1.90
2023-01-18T19:17:54.805Z,2.10
2023-01-18T19:20:22.609Z,1.90
2023-01-18T19:22:51.153Z,1.80
2023-01-18T19:25:19.061Z,1.80
2023-01-18T19:27:47.009Z,3.00
2023-01-18T19:30:18.693Z,1.90
2023-01-18T19:32:48.497Z,1.90
2023-01-18T19:35:17.367Z,1.90
2023-01-18T19:37:46.215Z,2.00
2023-01-18T19:40:15.774Z,2.00
2023-01-18T19:42:44.656Z,2.10
2023-01-18T19:45:19.624Z,2.10
2023-01-18T19:47:58.022Z,2.10
2023-01-18T19:50:27.707Z,2.00
2023-01-18T19:52:56.069Z,2.00
2023-01-18T19:55:25.081Z,1.90
2023-01-18T19:57:58.236Z,1.90
2023-01-18T20:00:26.760Z,1.90
2023-01-18T20:02:54.771Z,1.90
2023-01-18T20:05:22.451Z,1.90
2023-01-18T20:07:50.691Z,1.90
2023-01-18T20:10:20.538Z,1.90
2023-01-18T20:12:50.006Z,1.90
2023-01-18T20:15:19.126Z,2.00
2023-01-18T20:17:46.890Z,2.00
2023-01-18T20:20:24.330Z,2.00
2023-01-18T20:23:04.362Z,2.00
2023-01-18T20:25:33.488Z,2.10
2023-01-18T20:28:01.494Z,2.10
2023-01-18T20:30:29.183Z,2.20
2023-01-18T20:32:57.975Z,2.30
2023-01-18T20:35:28.836Z,2.30
2023-01-18T20:37:57.832Z,2.40
2023-01-18T20:40:26.939Z,2.40
2023-01-18T20:42:54.790Z,2.40
2023-01-18T20:45:24.377Z,2.50
2023-01-18T20:47:53.182Z,2.50
2023-01-18T20:50:32.406Z,2.50
2023-01-18T20:53:00.574Z,2.50
2023-01-18T20:55:28.558Z,2.50
2023-01-18T20:58:00.637Z,2.60
2023-01-18T21:03:18.917Z,2.50
2023-01-18T21:05:47.946Z,2.50
2023-01-18T21:08:19.416Z,2.40
2023-01-18T21:10:47.148Z,2.50
2023-01-18T21:13:15.126Z,2.50
2023-01-18T21:18:28.604Z,2.50
2023-01-18T21:20:58.477Z,2.40
2023-01-18T21:23:26.967Z,2.30
2023-01-18T21:25:59.876Z,2.20
2023-01-18T21:28:27.537Z,2.90
2023-01-18T21:30:56.649Z,1.90
2023-01-18T21:33:28.881Z,1.80
2023-01-18T21:36:04.476Z,1.70
2023-01-18T21:38:34.703Z,1.70
2023-01-18T21:44:12.421Z,1.60
2023-01-18T21:46:52.008Z,1.50
2023-01-18T21:50:04.044Z,1.40
2023-01-18T21:52:47.871Z,1.40
2023-01-18T21:55:16.894Z,1.20
2023-01-18T21:57:44.668Z,1.20
2023-01-18T22:00:13.061Z,1.00
2023-01-18T22:02:40.713Z,0.90
2023-01-18T22:05:09.980Z,0.90
2023-01-18T22:07:37.817Z,0.80
2023-01-18T22:10:07.166Z,1.50
2023-01-18T22:12:36.576Z,0.70
2023-01-18T22:15:05.415Z,0.60
2023-01-18T22:17:33.265Z,0.50
2023-01-18T22:20:01.843Z,0.60
2023-01-18T22:22:30.046Z,0.60
2023-01-18T22:25:00.402Z,0.60
2023-01-18T22:27:28.587Z,0.40
2023-01-18T22:29:56.261Z,0.40
2023-01-18T22:32:23.977Z,0.40
2023-01-18T22:34:51.583Z,0.30
2023-01-18T22:37:19.275Z,0.30
2023-01-18T22:39:46.897Z,0.30
2023-01-18T22:42:14.726Z,0.20
2023-01-18T22:44:42.386Z,0.10
2023-01-18T22:49:37.855Z,0.20
2023-01-18T22:52:05.687Z,0.20
2023-01-18T22:54:33.328Z,0.20
2023-01-18T22:57:01.007Z,0.30
2023-01-18T22:59:28.806Z,0.40
2023-01-18T23:01:57.081Z,0.30
2023-01-18T23:04:24.862Z,0.40
2023-01-18T23:06:54.734Z,0.40
2023-01-18T23:09:22.639Z,0.40
2023-01-18T23:11:51.803Z,0.40
2023-01-18T23:14:37.902Z,0.40
2023-01-18T23:17:24.085Z,0.40
2023-01-18T23:19:53.225Z,0.30
2023-01-18T23:22:20.818Z,0.30
2023-01-18T23:24:48.549Z,0.20
2023-01-18T23:27:16.173Z,0.20
2023-01-18T23:29:43.922Z,0.20
2023-01-18T23:32:11.844Z,0.20
2023-01-18T23:34:40.907Z,0.30
2023-01-18T23:37:08.687Z,0.30
2023-01-18T23:39:54.712Z,0.20
2023-01-18T23:42:41.104Z,0.20
2023-01-18T23:45:29.810Z,0.20
2023-01-18T23:48:16.166Z,0.10
2023-01-18T23:51:02.350Z,0.10
2023-01-18T23:53:48.561Z,0.00
2023-01-18T23:56:16.459Z,0.00
2023-01-18T23:58:44.220Z,0.40
